Volgo-balt 229 — UHZF — position and weather

sailwx.info

Track history (hours):
 
Tides and Currents Weather Stations Pressure Air Temp Water Temp Dewpoint Dewpoint Depression Visibility Wind Speed Wind Dir Waves Ship Positions

Volgo-balt 229

Last reported at 2015-May-25 01:30 UTC. Time now 2015-May-25 05:31 UTC.
Position N 59°33' E 022°46'.

Length 113 m; draft 3.6 m.

Type: Ship. MMSI: 273336300.

Date/timePositionNaut miles runAvg speedWind from/ knotsBaromVisibWave heightAir tempDewpointWater temp
2015-May-25 01:30N 59°33' E 022°46'23 7.4
2015-May-24 22:26N 59°39' E 023°29'23 7.6
2015-May-24 19:24N 59°45' E 024°14'7 7.7
2015-May-24 18:32N 59°47' E 024°26'8 7.5
2015-May-24 17:30N 59°49' E 024°41'51 7.3
2015-May-24 10:31N 59°60' E 026°20'7 7.5
2015-May-24 09:33N 60°01' E 026°34'95 6.7
2015-May-23 19:32N 59°59' E 029°43'7 6.9
2015-May-23 18:32N 59°56' E 029°56'8 7.7
2015-May-23 17:33N 59°53' E 030°10'2 2.2
2015-May-23 16:33N 59°54' E 030°14'0 0.0
2015-May-23 15:33N 59°54' E 030°14'0 0.0
2015-May-23 14:33N 59°54' E 030°14'0 0.0
2015-May-23 13:34N 59°54' E 030°14'0 0.0
2015-May-23 12:33N 59°54' E 030°14'0 0.0
2015-May-23 11:33N 59°54' E 030°14'0 0.0
2015-May-23 10:33N 59°54' E 030°14'0 0.0
2015-May-23 09:33N 59°54' E 030°14'0 0.0
2015-May-23 08:33N 59°54' E 030°14'0 0.0
2015-May-23 07:33N 59°54' E 030°14'0 0.0
2015-May-23 06:33N 59°54' E 030°14'0 0.0
2015-May-23 05:33N 59°54' E 030°14'0 0.0
2015-May-23 04:33N 59°54' E 030°14'0 0.0
2015-May-23 03:33N 59°54' E 030°14'0 0.0
2015-May-23 02:33N 59°54' E 030°14'1 1.3
2015-May-23 01:33N 59°53' E 030°12'6 6.3
2015-May-23 00:33N 59°57' E 030°22'6 6.5
2015-May-22 23:34N 59°52' E 030°29'2 0.4
2015-May-22 18:20N 59°50' E 030°32'0 0.0
2015-May-22 17:14N 59°50' E 030°32'0 0.0
2015-May-22 16:17N 59°50' E 030°32'0 0.0
2015-May-22 14:32N 59°50' E 030°32'0 0.0
2015-May-22 12:29N 59°50' E 030°32'0 0.0
2015-May-22 11:17N 59°50' E 030°32'1 1.4
2015-May-22 10:33N 59°51' E 030°30'  
2015-May-15 02:32N 59°49' E 030°35'5 5.1
2015-May-15 01:33N 59°52' E 030°28'  
Track history (hours):
 
Tides and Currents Weather Stations Pressure Air Temp Water Temp Dewpoint Dewpoint Depression Visibility Wind Speed Wind Dir Waves Ship Positions

Volgo-balt 229

Last reported at 2015-May-25 01:30 UTC. Time now 2015-May-25 05:31 UTC.
Position N 59°33' E 022°46'.

Length 113 m; draft 3.6 m.

Type: Ship. MMSI: 273336300.

Date/timePositionNaut miles runAvg speedWind from/ knotsBaromVisibWave heightAir tempDewpointWater temp
2015-May-25 01:30N 59°33' E 022°46'23 7.4
2015-May-24 22:26N 59°39' E 023°29'23 7.6
2015-May-24 19:24N 59°45' E 024°14'7 7.7
2015-May-24 18:32N 59°47' E 024°26'8 7.5
2015-May-24 17:30N 59°49' E 024°41'51 7.3
2015-May-24 10:31N 59°60' E 026°20'7 7.5
2015-May-24 09:33N 60°01' E 026°34'95 6.7
2015-May-23 19:32N 59°59' E 029°43'7 6.9
2015-May-23 18:32N 59°56' E 029°56'8 7.7
2015-May-23 17:33N 59°53' E 030°10'2 2.2
2015-May-23 16:33N 59°54' E 030°14'0 0.0
2015-May-23 15:33N 59°54' E 030°14'0 0.0
2015-May-23 14:33N 59°54' E 030°14'0 0.0
2015-May-23 13:34N 59°54' E 030°14'0 0.0
2015-May-23 12:33N 59°54' E 030°14'0 0.0
2015-May-23 11:33N 59°54' E 030°14'0 0.0
2015-May-23 10:33N 59°54' E 030°14'0 0.0
2015-May-23 09:33N 59°54' E 030°14'0 0.0
2015-May-23 08:33N 59°54' E 030°14'0 0.0
2015-May-23 07:33N 59°54' E 030°14'0 0.0
2015-May-23 06:33N 59°54' E 030°14'0 0.0
2015-May-23 05:33N 59°54' E 030°14'0 0.0
2015-May-23 04:33N 59°54' E 030°14'0 0.0
2015-May-23 03:33N 59°54' E 030°14'0 0.0
2015-May-23 02:33N 59°54' E 030°14'1 1.3
2015-May-23 01:33N 59°53' E 030°12'6 6.3
2015-May-23 00:33N 59°57' E 030°22'6 6.5
2015-May-22 23:34N 59°52' E 030°29'2 0.4
2015-May-22 18:20N 59°50' E 030°32'0 0.0
2015-May-22 17:14N 59°50' E 030°32'0 0.0
2015-May-22 16:17N 59°50' E 030°32'0 0.0
2015-May-22 14:32N 59°50' E 030°32'0 0.0
2015-May-22 12:29N 59°50' E 030°32'0 0.0
2015-May-22 11:17N 59°50' E 030°32'1 1.4
2015-May-22 10:33N 59°51' E 030°30'  
2015-May-15 02:32N 59°49' E 030°35'5 5.1
2015-May-15 01:33N 59°52' E 030°28'  

Dump ship's entire track history